Terminal Aerodrome Forecast
Issued by NWS

Home | Current Version | Previous Version | Text Only | Print | Product List | Glossary On
Versions: 1 2 3 4 5 6 7 8 9 10 11 12 13 14 15 16 17 18 19 20 21
000
FTUS41 KALY 282300
TAFPSF
TAF
KPSF 282337Z 2900/2924 31008KT P6SM SCT060
      TEMPO 2900/2903 31010G20KT BKN040
     FM290300 00000KT P6SM SKC
     FM290700 00000KT 3SM BR SKC
     FM291200 33005KT P6SM SCT040 SCT250
     FM291800 34005KT P6SM SCT050=

USA.gov is the U.S. government's official web portal to all federal, state and local government web resources and services.